sensor_id;sensor_type;location;lat;lon;timestamp;temperature;humidity
1165;DHT22;571;50.930;6.926;2023-05-07T02:46:10;15.80;99.90
1165;DHT22;571;50.930;6.926;2023-05-07T02:48:41;15.80;99.90
1165;DHT22;571;50.930;6.926;2023-05-07T02:51:14;15.70;99.90
1165;DHT22;571;50.930;6.926;2023-05-07T02:53:40;15.70;99.90
1165;DHT22;571;50.930;6.926;2023-05-07T02:56:09;15.80;99.90
1165;DHT22;571;50.930;6.926;2023-05-07T02:58:39;15.70;99.90
1165;DHT22;571;50.930;6.926;2023-05-07T03:01:15;15.70;99.90
1165;DHT22;571;50.930;6.926;2023-05-07T03:03:53;15.80;99.90
1165;DHT22;571;50.930;6.926;2023-05-07T03:06:38;15.70;99.90
1165;DHT22;571;50.930;6.926;2023-05-07T03:09:09;15.80;99.90
1165;DHT22;571;50.930;6.926;2023-05-07T03:11:40;15.80;99.90
1165;DHT22;571;50.930;6.926;2023-05-07T03:14:14;15.70;99.90
1165;DHT22;571;50.930;6.926;2023-05-07T03:16:51;15.70;99.90
1165;DHT22;571;50.930;6.926;2023-05-07T03:19:18;15.70;99.90
1165;DHT22;571;50.930;6.926;2023-05-07T03:21:54;15.70;99.90
1165;DHT22;571;50.930;6.926;2023-05-07T03:24:28;15.70;99.90
1165;DHT22;571;50.930;6.926;2023-05-07T03:27:00;15.70;99.90
1165;DHT22;571;50.930;6.926;2023-05-07T03:29:33;15.70;99.90
1165;DHT22;571;50.930;6.926;2023-05-07T03:32:11;15.60;99.90
1165;DHT22;571;50.930;6.926;2023-05-07T03:34:45;15.60;99.90
1165;DHT22;571;50.930;6.926;2023-05-07T03:37:14;15.60;99.90
1165;DHT22;571;50.930;6.926;2023-05-07T03:39:46;15.60;99.90
1165;DHT22;571;50.930;6.926;2023-05-07T03:42:15;15.60;99.90
1165;DHT22;571;50.930;6.926;2023-05-07T03:44:42;15.60;99.90
1165;DHT22;571;50.930;6.926;2023-05-07T03:47:18;15.60;99.90
1165;DHT22;571;50.930;6.926;2023-05-07T03:49:47;15.50;99.90
1165;DHT22;571;50.930;6.926;2023-05-07T03:52:22;15.50;99.90
1165;DHT22;571;50.930;6.926;2023-05-07T03:54:56;15.50;99.90
1165;DHT22;571;50.930;6.926;2023-05-07T03:57:35;15.50;99.90
1165;DHT22;571;50.930;6.926;2023-05-07T04:03:07;15.40;99.90
1165;DHT22;571;50.930;6.926;2023-05-07T04:05:37;15.40;99.90
1165;DHT22;571;50.930;6.926;2023-05-07T04:08:08;15.40;99.90
1165;DHT22;571;50.930;6.926;2023-05-07T04:10:43;15.40;99.90
1165;DHT22;571;50.930;6.926;2023-05-07T04:13:19;15.40;99.90
1165;DHT22;571;50.930;6.926;2023-05-07T04:15:49;15.40;99.90
1165;DHT22;571;50.930;6.926;2023-05-07T04:18:35;15.40;99.90
1165;DHT22;571;50.930;6.926;2023-05-07T04:21:14;15.40;99.90
1165;DHT22;571;50.930;6.926;2023-05-07T04:23:44;15.50;99.90
1165;DHT22;571;50.930;6.926;2023-05-07T04:26:14;15.50;99.90
1165;DHT22;571;50.930;6.926;2023-05-07T04:32:16;15.50;99.90
1165;DHT22;571;50.930;6.926;2023-05-07T04:34:48;15.50;99.90
1165;DHT22;571;50.930;6.926;2023-05-07T04:37:19;15.50;99.90
1165;DHT22;571;50.930;6.926;2023-05-07T04:40:08;15.50;99.90
1165;DHT22;571;50.930;6.926;2023-05-07T04:42:37;15.60;99.90
1165;DHT22;571;50.930;6.926;2023-05-07T04:45:17;15.60;99.90
1165;DHT22;571;50.930;6.926;2023-05-07T04:47:46;15.60;99.90
1165;DHT22;571;50.930;6.926;2023-05-07T04:50:19;15.60;99.90
1165;DHT22;571;50.930;6.926;2023-05-07T04:52:58;15.60;99.90
1165;DHT22;571;50.930;6.926;2023-05-07T04:55:34;15.70;99.90
1165;DHT22;571;50.930;6.926;2023-05-07T04:58:12;15.70;99.90
1165;DHT22;571;50.930;6.926;2023-05-07T05:00:42;15.70;99.90
1165;DHT22;571;50.930;6.926;2023-05-07T05:03:18;15.80;99.90
1165;DHT22;571;50.930;6.926;2023-05-07T05:06:09;15.80;99.90
1165;DHT22;571;50.930;6.926;2023-05-07T05:08:41;15.80;99.90
1165;DHT22;571;50.930;6.926;2023-05-07T05:11:27;15.80;99.90
1165;DHT22;571;50.930;6.926;2023-05-07T05:14:14;15.80;99.90
1165;DHT22;571;50.930;6.926;2023-05-07T05:17:01;15.80;99.90
1165;DHT22;571;50.930;6.926;2023-05-07T05:19:58;15.90;99.90
1165;DHT22;571;50.930;6.926;2023-05-07T05:22:40;15.90;99.90
1165;DHT22;571;50.930;6.926;2023-05-07T05:25:07;15.90;99.90
1165;DHT22;571;50.930;6.926;2023-05-07T05:27:42;16.00;99.90
1165;DHT22;571;50.930;6.926;2023-05-07T05:30:29;16.00;99.90
1165;DHT22;571;50.930;6.926;2023-05-07T05:33:08;16.00;99.90
1165;DHT22;571;50.930;6.926;2023-05-07T05:35:44;16.10;99.90
1165;DHT22;571;50.930;6.926;2023-05-07T05:38:13;16.10;99.90
1165;DHT22;571;50.930;6.926;2023-05-07T05:40:43;16.10;99.90
1165;DHT22;571;50.930;6.926;2023-05-07T05:43:11;16.20;99.90
1165;DHT22;571;50.930;6.926;2023-05-07T05:45:49;16.20;99.90
1165;DHT22;571;50.930;6.926;2023-05-07T05:48:19;16.20;99.90
1165;DHT22;571;50.930;6.926;2023-05-07T05:50:48;16.30;99.90
1165;DHT22;571;50.930;6.926;2023-05-07T05:53:27;16.30;99.90
1165;DHT22;571;50.930;6.926;2023-05-07T05:56:06;16.40;99.90
1165;DHT22;571;50.930;6.926;2023-05-07T05:58:38;16.40;99.90
1165;DHT22;571;50.930;6.926;2023-05-07T06:01:19;16.50;99.90
1165;DHT22;571;50.930;6.926;2023-05-07T06:03:47;16.50;99.90
1165;DHT22;571;50.930;6.926;2023-05-07T06:06:20;16.50;99.90
1165;DHT22;571;50.930;6.926;2023-05-07T06:09:22;16.60;99.90
1165;DHT22;571;50.930;6.926;2023-05-07T06:12:12;16.60;99.90
1165;DHT22;571;50.930;6.926;2023-05-07T06:15:11;16.70;99.90
1165;DHT22;571;50.930;6.926;2023-05-07T06:17:43;16.70;99.90
1165;DHT22;571;50.930;6.926;2023-05-07T06:20:34;16.80;99.90
1165;DHT22;571;50.930;6.926;2023-05-07T06:23:28;16.80;99.90
1165;DHT22;571;50.930;6.926;2023-05-07T06:26:22;16.90;99.90
1165;DHT22;571;50.930;6.926;2023-05-07T06:29:12;16.90;99.90
1165;DHT22;571;50.930;6.926;2023-05-07T06:32:20;17.00;99.90
1165;DHT22;571;50.930;6.926;2023-05-07T06:35:02;17.10;99.90
1165;DHT22;571;50.930;6.926;2023-05-07T06:37:48;17.10;99.90
1165;DHT22;571;50.930;6.926;2023-05-07T06:43:23;17.20;99.90
1165;DHT22;571;50.930;6.926;2023-05-07T06:44:34;17.30;99.90
1165;DHT22;571;50.930;6.926;2023-05-07T06:47:31;17.30;99.90
1165;DHT22;571;50.930;6.926;2023-05-07T06:50:08;17.40;99.90
1165;DHT22;571;50.930;6.926;2023-05-07T06:52:48;17.40;99.90
1165;DHT22;571;50.930;6.926;2023-05-07T06:55:38;17.50;99.90
1165;DHT22;571;50.930;6.926;2023-05-07T07:11:22;17.80;99.90
1165;DHT22;571;50.930;6.926;2023-05-07T07:45:37;18.40;99.90
1165;DHT22;571;50.930;6.926;2023-05-07T07:48:58;18.40;99.90
1165;DHT22;571;50.930;6.926;2023-05-07T07:52:13;18.50;99.90
1165;DHT22;571;50.930;6.926;2023-05-07T08:18:22;19.30;99.90
1165;DHT22;571;50.930;6.926;2023-05-07T10:58:27;23.20;91.60
1165;DHT22;571;50.930;6.926;2023-05-07T11:14:58;24.10;91.70
1165;DHT22;571;50.930;6.926;2023-05-07T11:17:29;24.10;91.00
1165;DHT22;571;50.930;6.926;2023-05-07T11:20:20;24.40;87.70
1165;DHT22;571;50.930;6.926;2023-05-07T11:23:12;24.60;90.40
1165;DHT22;571;50.930;6.926;2023-05-07T11:26:05;24.60;92.20
1165;DHT22;571;50.930;6.926;2023-05-07T11:32:08;24.60;91.10
1165;DHT22;571;50.930;6.926;2023-05-07T11:34:53;24.50;92.40
1165;DHT22;571;50.930;6.926;2023-05-07T11:40:27;24.20;90.60
1165;DHT22;571;50.930;6.926;2023-05-07T11:42:56;24.20;90.40
1165;DHT22;571;50.930;6.926;2023-05-07T11:45:34;24.10;86.20
1165;DHT22;571;50.930;6.926;2023-05-07T11:48:16;24.00;89.80
1165;DHT22;571;50.930;6.926;2023-05-07T11:51:00;23.90;87.60
1165;DHT22;571;50.930;6.926;2023-05-07T11:59:40;23.60;93.20
1165;DHT22;571;50.930;6.926;2023-05-07T12:02:18;23.40;93.10
1165;DHT22;571;50.930;6.926;2023-05-07T12:04:57;23.30;93.70
1165;DHT22;571;50.930;6.926;2023-05-07T12:07:30;23.20;93.90
1165;DHT22;571;50.930;6.926;2023-05-07T12:09:57;23.20;92.80
1165;DHT22;571;50.930;6.926;2023-05-07T12:12:28;23.10;90.40
1165;DHT22;571;50.930;6.926;2023-05-07T12:15:31;23.20;91.40
1165;DHT22;571;50.930;6.926;2023-05-07T12:20:41;23.10;90.30
1165;DHT22;571;50.930;6.926;2023-05-07T12:23:13;23.10;90.70
1165;DHT22;571;50.930;6.926;2023-05-07T12:26:03;23.10;90.90
1165;DHT22;571;50.930;6.926;2023-05-07T12:28:39;23.00;90.20
1165;DHT22;571;50.930;6.926;2023-05-07T12:31:22;23.10;90.00
1165;DHT22;571;50.930;6.926;2023-05-07T12:33:58;23.00;90.80
1165;DHT22;571;50.930;6.926;2023-05-07T12:36:26;22.90;94.30
1165;DHT22;571;50.930;6.926;2023-05-07T12:39:07;22.90;91.80
1165;DHT22;571;50.930;6.926;2023-05-07T12:41:52;22.80;91.70
1165;DHT22;571;50.930;6.926;2023-05-07T12:44:21;22.80;91.90
1165;DHT22;571;50.930;6.926;2023-05-07T12:46:54;22.70;94.30
1165;DHT22;571;50.930;6.926;2023-05-07T12:49:22;22.60;95.80
1165;DHT22;571;50.930;6.926;2023-05-07T12:51:52;22.60;96.70
1165;DHT22;571;50.930;6.926;2023-05-07T12:54:29;22.50;97.40
1165;DHT22;571;50.930;6.926;2023-05-07T12:57:01;22.50;98.30
1165;DHT22;571;50.930;6.926;2023-05-07T12:59:32;22.40;99.10
1165;DHT22;571;50.930;6.926;2023-05-07T13:01:59;22.30;98.40
1165;DHT22;571;50.930;6.926;2023-05-07T13:04:26;22.30;97.40
1165;DHT22;571;50.930;6.926;2023-05-07T13:06:54;22.30;96.70
1165;DHT22;571;50.930;6.926;2023-05-07T13:09:21;22.30;96.80
1165;DHT22;571;50.930;6.926;2023-05-07T13:11:51;22.30;97.10
1165;DHT22;571;50.930;6.926;2023-05-07T13:14:19;22.30;97.90
1165;DHT22;571;50.930;6.926;2023-05-07T13:16:51;22.20;97.30
1165;DHT22;571;50.930;6.926;2023-05-07T13:19:27;22.20;96.50
1165;DHT22;571;50.930;6.926;2023-05-07T13:21:58;22.20;95.80
1165;DHT22;571;50.930;6.926;2023-05-07T13:24:25;22.30;95.90
1165;DHT22;571;50.930;6.926;2023-05-07T13:27:00;22.30;95.90
1165;DHT22;571;50.930;6.926;2023-05-07T13:29:38;22.30;94.50
1165;DHT22;571;50.930;6.926;2023-05-07T13:32:11;22.40;94.70
1165;DHT22;571;50.930;6.926;2023-05-07T13:34:38;22.50;95.20
1165;DHT22;571;50.930;6.926;2023-05-07T13:47:33;22.80;93.20
1165;DHT22;571;50.930;6.926;2023-05-07T13:52:49;23.00;93.30
1165;DHT22;571;50.930;6.926;2023-05-07T13:55:23;23.00;93.30
1165;DHT22;571;50.930;6.926;2023-05-07T14:05:15;23.20;93.50
1165;DHT22;571;50.930;6.926;2023-05-07T14:07:55;23.30;94.00
1165;DHT22;571;50.930;6.926;2023-05-07T14:14:17;23.40;92.30
1165;DHT22;571;50.930;6.926;2023-05-07T14:17:25;23.40;93.20
1165;DHT22;571;50.930;6.926;2023-05-07T14:19:55;23.30;92.90
1165;DHT22;571;50.930;6.926;2023-05-07T14:23:00;23.20;92.70
1165;DHT22;571;50.930;6.926;2023-05-07T14:28:54;22.90;93.70
1165;DHT22;571;50.930;6.926;2023-05-07T14:49:09;22.50;96.30
1165;DHT22;571;50.930;6.926;2023-05-07T15:02:13;22.50;96.10
1165;DHT22;571;50.930;6.926;2023-05-07T15:05:25;22.50;96.10
1165;DHT22;571;50.930;6.926;2023-05-07T15:30:45;22.30;98.40
1165;DHT22;571;50.930;6.926;2023-05-07T15:33:15;22.50;97.80
1165;DHT22;571;50.930;6.926;2023-05-07T15:35:53;22.60;96.50
1165;DHT22;571;50.930;6.926;2023-05-07T15:38:24;22.70;94.60
1165;DHT22;571;50.930;6.926;2023-05-07T15:40:51;22.80;94.80
1165;DHT22;571;50.930;6.926;2023-05-07T15:43:18;22.80;94.10
1165;DHT22;571;50.930;6.926;2023-05-07T15:45:47;22.80;94.90
1165;DHT22;571;50.930;6.926;2023-05-07T15:48:16;22.80;95.20
1165;DHT22;571;50.930;6.926;2023-05-07T15:50:42;22.80;95.40
1165;DHT22;571;50.930;6.926;2023-05-07T15:53:14;22.90;94.80
1165;DHT22;571;50.930;6.926;2023-05-07T15:55:43;23.10;94.60
1165;DHT22;571;50.930;6.926;2023-05-07T15:58:10;23.20;94.90
1165;DHT22;571;50.930;6.926;2023-05-07T16:04:06;23.40;94.20
1165;DHT22;571;50.930;6.926;2023-05-07T16:06:36;23.40;94.30
1165;DHT22;571;50.930;6.926;2023-05-07T16:09:16;23.40;94.40
1165;DHT22;571;50.930;6.926;2023-05-07T16:11:45;23.40;94.80
1165;DHT22;571;50.930;6.926;2023-05-07T16:14:15;23.30;94.20
1165;DHT22;571;50.930;6.926;2023-05-07T16:17:20;23.20;94.50
1165;DHT22;571;50.930;6.926;2023-05-07T16:26:44;23.10;92.50
1165;DHT22;571;50.930;6.926;2023-05-07T16:29:15;22.90;93.00
1165;DHT22;571;50.930;6.926;2023-05-07T16:31:42;23.10;93.20
1165;DHT22;571;50.930;6.926;2023-05-07T16:41:32;22.90;94.00
1165;DHT22;571;50.930;6.926;2023-05-07T16:50:17;22.70;94.10
1165;DHT22;571;50.930;6.926;2023-05-07T16:53:15;22.70;94.10
1165;DHT22;571;50.930;6.926;2023-05-07T16:55:42;22.60;94.30
1165;DHT22;571;50.930;6.926;2023-05-07T16:58:15;22.60;95.50
1165;DHT22;571;50.930;6.926;2023-05-07T17:00:45;22.50;94.70
1165;DHT22;571;50.930;6.926;2023-05-07T17:03:14;22.40;94.50
1165;DHT22;571;50.930;6.926;2023-05-07T17:05:43;22.40;94.90
1165;DHT22;571;50.930;6.926;2023-05-07T17:08:09;22.40;94.80
1165;DHT22;571;50.930;6.926;2023-05-07T17:10:38;22.40;94.00
1165;DHT22;571;50.930;6.926;2023-05-07T17:13:05;22.30;94.40
1165;DHT22;571;50.930;6.926;2023-05-07T17:15:31;22.30;94.30
1165;DHT22;571;50.930;6.926;2023-05-07T17:17:58;22.30;94.50
1165;DHT22;571;50.930;6.926;2023-05-07T17:20:25;22.20;94.60
1165;DHT22;571;50.930;6.926;2023-05-07T17:22:53;22.10;94.80
1165;DHT22;571;50.930;6.926;2023-05-07T17:25:20;22.10;95.00
1165;DHT22;571;50.930;6.926;2023-05-07T17:27:47;22.00;94.80
1165;DHT22;571;50.930;6.926;2023-05-07T17:30:14;22.00;95.00
1165;DHT22;571;50.930;6.926;2023-05-07T17:32:41;22.00;94.80
1165;DHT22;571;50.930;6.926;2023-05-07T17:35:08;21.90;95.20
1165;DHT22;571;50.930;6.926;2023-05-07T17:37:35;21.80;95.70
1165;DHT22;571;50.930;6.926;2023-05-07T17:40:33;21.80;95.70
1165;DHT22;571;50.930;6.926;2023-05-07T17:43:32;21.70;95.70
1165;DHT22;571;50.930;6.926;2023-05-07T17:48:52;21.50;96.40
1165;DHT22;571;50.930;6.926;2023-05-07T17:54:54;21.40;96.50
1165;DHT22;571;50.930;6.926;2023-05-07T17:57:48;21.40;96.50
1165;DHT22;571;50.930;6.926;2023-05-07T18:00:45;21.40;96.60
1165;DHT22;571;50.930;6.926;2023-05-07T18:03:30;21.40;97.00
1165;DHT22;571;50.930;6.926;2023-05-07T18:06:13;21.30;97.30
1165;DHT22;571;50.930;6.926;2023-05-07T18:09:21;21.30;97.60
1165;DHT22;571;50.930;6.926;2023-05-07T18:12:01;21.30;97.90
1165;DHT22;571;50.930;6.926;2023-05-07T18:14:37;21.20;98.00
1165;DHT22;571;50.930;6.926;2023-05-07T18:17:04;21.20;98.30
1165;DHT22;571;50.930;6.926;2023-05-07T18:19:30;21.10;98.50
1165;DHT22;571;50.930;6.926;2023-05-07T18:21:57;21.20;98.80
1165;DHT22;571;50.930;6.926;2023-05-07T18:24:24;21.20;99.40
1165;DHT22;571;50.930;6.926;2023-05-07T18:26:52;21.20;99.40
1165;DHT22;571;50.930;6.926;2023-05-07T18:29:19;21.20;99.80
1165;DHT22;571;50.930;6.926;2023-05-07T18:44:55;21.00;99.90
1165;DHT22;571;50.930;6.926;2023-05-07T18:48:14;21.00;99.90
1165;DHT22;571;50.930;6.926;2023-05-07T19:12:27;20.50;99.90
1165;DHT22;571;50.930;6.926;2023-05-07T19:14:54;20.40;99.90
1165;DHT22;571;50.930;6.926;2023-05-07T19:20:13;20.40;99.90
1165;DHT22;571;50.930;6.926;2023-05-07T19:22:45;20.30;99.90
1165;DHT22;571;50.930;6.926;2023-05-07T19:25:13;20.30;99.90
1165;DHT22;571;50.930;6.926;2023-05-07T19:27:44;20.30;99.90
1165;DHT22;571;50.930;6.926;2023-05-07T19:30:18;20.30;99.90
1165;DHT22;571;50.930;6.926;2023-05-07T19:32:53;20.20;99.90
1165;DHT22;571;50.930;6.926;2023-05-07T19:35:23;20.20;99.90
1165;DHT22;571;50.930;6.926;2023-05-07T19:37:52;20.10;99.90
1165;DHT22;571;50.930;6.926;2023-05-07T19:40:22;20.10;99.90
1165;DHT22;571;50.930;6.926;2023-05-07T19:42:54;20.20;99.90
1165;DHT22;571;50.930;6.926;2023-05-07T19:45:30;20.20;99.90
1165;DHT22;571;50.930;6.926;2023-05-07T19:47:59;20.10;99.90
1165;DHT22;571;50.930;6.926;2023-05-07T19:50:32;20.10;99.90
1165;DHT22;571;50.930;6.926;2023-05-07T19:53:02;20.00;99.90
1165;DHT22;571;50.930;6.926;2023-05-07T19:55:33;20.00;99.90
1165;DHT22;571;50.930;6.926;2023-05-07T19:58:06;20.00;99.90
1165;DHT22;571;50.930;6.926;2023-05-07T20:00:41;19.90;99.90
1165;DHT22;571;50.930;6.926;2023-05-07T20:03:08;20.00;99.90
1165;DHT22;571;50.930;6.926;2023-05-07T20:05:50;20.00;99.90
1165;DHT22;571;50.930;6.926;2023-05-07T20:08:21;19.80;99.90
1165;DHT22;571;50.930;6.926;2023-05-07T20:10:57;19.80;99.90
1165;DHT22;571;50.930;6.926;2023-05-07T20:13:38;19.80;99.90
1165;DHT22;571;50.930;6.926;2023-05-07T20:16:12;19.80;99.90
1165;DHT22;571;50.930;6.926;2023-05-07T20:18:44;19.80;99.90
1165;DHT22;571;50.930;6.926;2023-05-07T20:21:11;19.70;99.90
1165;DHT22;571;50.930;6.926;2023-05-07T20:23:41;19.60;99.90
1165;DHT22;571;50.930;6.926;2023-05-07T20:26:11;19.60;99.90
1165;DHT22;571;50.930;6.926;2023-05-07T20:28:52;19.60;99.90
1165;DHT22;571;50.930;6.926;2023-05-07T20:31:22;19.50;99.90
1165;DHT22;571;50.930;6.926;2023-05-07T20:33:53;19.50;99.90
1165;DHT22;571;50.930;6.926;2023-05-07T20:36:34;19.50;99.90
1165;DHT22;571;50.930;6.926;2023-05-07T20:39:21;19.50;99.90
1165;DHT22;571;50.930;6.926;2023-05-07T20:41:51;19.40;99.90
1165;DHT22;571;50.930;6.926;2023-05-07T20:44:25;19.40;99.90
1165;DHT22;571;50.930;6.926;2023-05-07T20:46:59;19.40;99.90
1165;DHT22;571;50.930;6.926;2023-05-07T20:49:39;19.30;99.90
1165;DHT22;571;50.930;6.926;2023-05-07T20:52:20;19.20;99.90
1165;DHT22;571;50.930;6.926;2023-05-07T20:54:54;19.20;99.90
1165;DHT22;571;50.930;6.926;2023-05-07T20:57:31;19.20;99.90
1165;DHT22;571;50.930;6.926;2023-05-07T21:00:14;19.20;99.90
1165;DHT22;571;50.930;6.926;2023-05-07T21:02:48;19.20;99.90
1165;DHT22;571;50.930;6.926;2023-05-07T21:05:30;19.20;99.90
1165;DHT22;571;50.930;6.926;2023-05-07T21:08:02;19.10;99.90
1165;DHT22;571;50.930;6.926;2023-05-07T21:10:36;19.10;99.90
1165;DHT22;571;50.930;6.926;2023-05-07T21:13:11;19.10;99.90
1165;DHT22;571;50.930;6.926;2023-05-07T21:16:02;19.10;99.90
1165;DHT22;571;50.930;6.926;2023-05-07T21:18:38;19.20;99.90
1165;DHT22;571;50.930;6.926;2023-05-07T21:21:37;19.00;99.90
1165;DHT22;571;50.930;6.926;2023-05-07T21:24:23;19.00;99.90
1165;DHT22;571;50.930;6.926;2023-05-07T21:27:06;19.00;99.90
1165;DHT22;571;50.930;6.926;2023-05-07T21:29:38;18.90;99.90
1165;DHT22;571;50.930;6.926;2023-05-07T21:32:12;18.90;99.90
1165;DHT22;571;50.930;6.926;2023-05-07T21:34:40;18.80;99.90
1165;DHT22;571;50.930;6.926;2023-05-07T21:37:10;18.90;99.90
1165;DHT22;571;50.930;6.926;2023-05-07T21:39:46;18.90;99.90
1165;DHT22;571;50.930;6.926;2023-05-07T21:42:36;18.90;99.90
1165;DHT22;571;50.930;6.926;2023-05-07T21:45:19;18.90;99.90
1165;DHT22;571;50.930;6.926;2023-05-07T21:47:47;18.90;99.90
1165;DHT22;571;50.930;6.926;2023-05-07T21:50:39;18.80;99.90
1165;DHT22;571;50.930;6.926;2023-05-07T21:53:10;18.80;99.90
1165;DHT22;571;50.930;6.926;2023-05-07T21:55:41;18.80;99.90
1165;DHT22;571;50.930;6.926;2023-05-07T21:58:20;18.80;99.90
